sensor_id;sensor_type;location;lat;lon;timestamp;pressure;altitude;pressure_sealevel;temperature;humidity
63663;BME280;49815;51.618;0.336;2022-10-30T00:01:20;100719.46;;;16.90;54.35
63663;BME280;49815;51.618;0.336;2022-10-30T00:03:46;100721.90;;;16.79;54.26
63663;BME280;49815;51.618;0.336;2022-10-30T00:06:12;100712.85;;;16.68;54.46
63663;BME280;49815;51.618;0.336;2022-10-30T00:08:38;100713.12;;;16.62;54.50
63663;BME280;49815;51.618;0.336;2022-10-30T00:11:05;100715.07;;;16.37;54.44
63663;BME280;49815;51.618;0.336;2022-10-30T00:13:28;100717.52;;;16.70;54.34
63663;BME280;49815;51.618;0.336;2022-10-30T00:15:53;100724.04;;;16.61;54.67
63663;BME280;49815;51.618;0.336;2022-10-30T00:18:20;100734.46;;;16.34;54.43
63663;BME280;49815;51.618;0.336;2022-10-30T00:20:45;100737.63;;;16.54;54.81
63663;BME280;49815;51.618;0.336;2022-10-30T00:23:11;100743.32;;;15.96;55.87
63663;BME280;49815;51.618;0.336;2022-10-30T00:25:37;100741.96;;;16.21;55.93
63663;BME280;49815;51.618;0.336;2022-10-30T00:28:02;100745.12;;;15.72;56.33
63663;BME280;49815;51.618;0.336;2022-10-30T00:30:27;100738.19;;;15.42;56.37
63663;BME280;49815;51.618;0.336;2022-10-30T00:32:53;100741.45;;;15.61;57.08
63663;BME280;49815;51.618;0.336;2022-10-30T00:35:18;100737.51;;;15.49;56.24
63663;BME280;49815;51.618;0.336;2022-10-30T00:37:43;100740.48;;;14.90;57.07
63663;BME280;49815;51.618;0.336;2022-10-30T00:40:13;100735.76;;;15.27;56.50
63663;BME280;49815;51.618;0.336;2022-10-30T00:42:33;100728.75;;;15.23;56.98
63663;BME280;49815;51.618;0.336;2022-10-30T00:44:59;100724.17;;;15.65;56.09
63663;BME280;49815;51.618;0.336;2022-10-30T00:47:27;100727.48;;;14.85;57.11
63663;BME280;49815;51.618;0.336;2022-10-30T00:49:55;100723.07;;;15.20;57.31
63663;BME280;49815;51.618;0.336;2022-10-30T00:52:16;100717.23;;;15.09;56.99
63663;BME280;49815;51.618;0.336;2022-10-30T00:54:41;100717.58;;;15.17;56.89
63663;BME280;49815;51.618;0.336;2022-10-30T00:57:07;100716.24;;;15.04;56.53
63663;BME280;49815;51.618;0.336;2022-10-30T00:59:33;100702.15;;;15.60;56.40
63663;BME280;49815;51.618;0.336;2022-10-30T01:01:57;100697.01;;;15.07;56.84
63663;BME280;49815;51.618;0.336;2022-10-30T01:04:23;100696.65;;;15.51;55.57
63663;BME280;49815;51.618;0.336;2022-10-30T01:06:49;100699.51;;;15.78;54.90
63663;BME280;49815;51.618;0.336;2022-10-30T01:09:13;100704.30;;;15.75;55.06
63663;BME280;49815;51.618;0.336;2022-10-30T01:11:38;100712.31;;;15.23;55.97
63663;BME280;49815;51.618;0.336;2022-10-30T01:14:05;100712.91;;;15.28;56.04
63663;BME280;49815;51.618;0.336;2022-10-30T01:16:46;100710.04;;;15.39;56.32
63663;BME280;49815;51.618;0.336;2022-10-30T01:18:58;100707.57;;;15.24;56.07
63663;BME280;49815;51.618;0.336;2022-10-30T01:21:30;100717.14;;;15.88;54.99
63663;BME280;49815;51.618;0.336;2022-10-30T01:23:52;100712.80;;;15.88;55.15
63663;BME280;49815;51.618;0.336;2022-10-30T01:26:16;100707.40;;;15.75;54.77
63663;BME280;49815;51.618;0.336;2022-10-30T01:28:47;100709.55;;;16.59;54.18
63663;BME280;49815;51.618;0.336;2022-10-30T01:31:10;100714.96;;;16.06;54.17
63663;BME280;49815;51.618;0.336;2022-10-30T01:33:35;100707.84;;;16.63;53.84
63663;BME280;49815;51.618;0.336;2022-10-30T01:35:57;100685.49;;;15.93;53.53
63663;BME280;49815;51.618;0.336;2022-10-30T01:38:20;100691.50;;;16.09;53.88
63663;BME280;49815;51.618;0.336;2022-10-30T01:40:43;100704.56;;;15.95;53.78
63663;BME280;49815;51.618;0.336;2022-10-30T01:43:08;100699.25;;;16.12;53.52
63663;BME280;49815;51.618;0.336;2022-10-30T01:45:44;100696.80;;;16.23;53.57
63663;BME280;49815;51.618;0.336;2022-10-30T01:48:09;100694.52;;;16.61;53.06
63663;BME280;49815;51.618;0.336;2022-10-30T01:50:28;100693.54;;;16.05;52.94
63663;BME280;49815;51.618;0.336;2022-10-30T01:52:55;100699.15;;;16.27;52.96
63663;BME280;49815;51.618;0.336;2022-10-30T01:55:21;100702.08;;;16.20;52.69
63663;BME280;49815;51.618;0.336;2022-10-30T01:57:44;100700.75;;;15.68;53.78
63663;BME280;49815;51.618;0.336;2022-10-30T02:00:05;100697.81;;;16.00;54.02
63663;BME280;49815;51.618;0.336;2022-10-30T02:02:29;100693.09;;;15.83;53.85
63663;BME280;49815;51.618;0.336;2022-10-30T02:04:54;100686.59;;;15.71;53.76
63663;BME280;49815;51.618;0.336;2022-10-30T02:07:19;100692.94;;;16.02;53.78
63663;BME280;49815;51.618;0.336;2022-10-30T02:09:44;100696.16;;;15.88;53.59
63663;BME280;49815;51.618;0.336;2022-10-30T02:12:10;100692.16;;;15.76;53.08
63663;BME280;49815;51.618;0.336;2022-10-30T02:14:37;100690.72;;;16.14;53.24
63663;BME280;49815;51.618;0.336;2022-10-30T02:17:03;100686.44;;;15.85;53.60
63663;BME280;49815;51.618;0.336;2022-10-30T02:19:25;100676.05;;;16.01;53.17
63663;BME280;49815;51.618;0.336;2022-10-30T02:21:51;100678.54;;;15.93;53.19
63663;BME280;49815;51.618;0.336;2022-10-30T02:24:16;100681.52;;;16.00;52.91
63663;BME280;49815;51.618;0.336;2022-10-30T02:26:41;100680.64;;;16.07;52.81
63663;BME280;49815;51.618;0.336;2022-10-30T02:29:07;100677.05;;;15.98;53.59
63663;BME280;49815;51.618;0.336;2022-10-30T02:31:31;100683.40;;;15.76;53.86
63663;BME280;49815;51.618;0.336;2022-10-30T02:33:57;100693.43;;;15.76;53.85
63663;BME280;49815;51.618;0.336;2022-10-30T02:36:23;100687.37;;;15.77;53.93
63663;BME280;49815;51.618;0.336;2022-10-30T02:38:49;100685.44;;;15.74;54.08
63663;BME280;49815;51.618;0.336;2022-10-30T02:41:14;100680.91;;;15.34;54.22
63663;BME280;49815;51.618;0.336;2022-10-30T02:43:39;100681.40;;;15.33;54.73
63663;BME280;49815;51.618;0.336;2022-10-30T02:46:05;100683.67;;;15.90;54.89
63663;BME280;49815;51.618;0.336;2022-10-30T02:48:30;100691.34;;;14.92;55.65
63663;BME280;49815;51.618;0.336;2022-10-30T02:50:58;100694.78;;;15.81;55.28
63663;BME280;49815;51.618;0.336;2022-10-30T02:53:21;100685.62;;;15.24;55.44
63663;BME280;49815;51.618;0.336;2022-10-30T02:55:46;100677.16;;;15.79;55.48
63663;BME280;49815;51.618;0.336;2022-10-30T02:58:12;100675.14;;;15.75;55.02
63663;BME280;49815;51.618;0.336;2022-10-30T03:00:36;100682.68;;;15.65;54.90
63663;BME280;49815;51.618;0.336;2022-10-30T03:03:02;100679.77;;;15.51;54.76
63663;BME280;49815;51.618;0.336;2022-10-30T03:05:27;100683.11;;;15.23;55.28
63663;BME280;49815;51.618;0.336;2022-10-30T03:07:53;100676.09;;;14.99;55.96
63663;BME280;49815;51.618;0.336;2022-10-30T03:10:18;100669.01;;;15.59;55.43
63663;BME280;49815;51.618;0.336;2022-10-30T03:12:43;100657.76;;;15.64;55.34
63663;BME280;49815;51.618;0.336;2022-10-30T03:15:09;100656.19;;;15.37;55.38
63663;BME280;49815;51.618;0.336;2022-10-30T03:17:34;100649.60;;;15.28;55.44
63663;BME280;49815;51.618;0.336;2022-10-30T03:19:59;100658.09;;;15.49;55.38
63663;BME280;49815;51.618;0.336;2022-10-30T03:22:24;100662.37;;;15.45;55.97
63663;BME280;49815;51.618;0.336;2022-10-30T03:24:50;100670.21;;;15.49;55.62
63663;BME280;49815;51.618;0.336;2022-10-30T03:27:16;100662.77;;;15.32;55.82
63663;BME280;49815;51.618;0.336;2022-10-30T03:29:41;100659.78;;;15.73;55.48
63663;BME280;49815;51.618;0.336;2022-10-30T03:32:08;100656.45;;;15.12;56.14
63663;BME280;49815;51.618;0.336;2022-10-30T03:34:32;100658.30;;;15.19;55.93
63663;BME280;49815;51.618;0.336;2022-10-30T03:36:58;100664.02;;;15.44;56.04
63663;BME280;49815;51.618;0.336;2022-10-30T03:39:23;100673.98;;;15.09;56.30
63663;BME280;49815;51.618;0.336;2022-10-30T03:41:49;100678.52;;;14.73;57.55
63663;BME280;49815;51.618;0.336;2022-10-30T03:44:14;100680.43;;;15.04;57.25
63663;BME280;49815;51.618;0.336;2022-10-30T03:46:40;100688.08;;;15.10;56.99
63663;BME280;49815;51.618;0.336;2022-10-30T03:49:05;100687.63;;;14.81;57.75
63663;BME280;49815;51.618;0.336;2022-10-30T03:51:31;100687.37;;;14.85;57.56
63663;BME280;49815;51.618;0.336;2022-10-30T03:53:56;100686.92;;;14.92;57.46
63663;BME280;49815;51.618;0.336;2022-10-30T03:56:21;100683.43;;;15.11;57.10
63663;BME280;49815;51.618;0.336;2022-10-30T03:58:46;100688.33;;;15.16;56.77
63663;BME280;49815;51.618;0.336;2022-10-30T04:01:12;100683.88;;;15.23;56.40
63663;BME280;49815;51.618;0.336;2022-10-30T04:03:37;100686.80;;;15.30;56.33
63663;BME280;49815;51.618;0.336;2022-10-30T04:06:02;100692.29;;;15.16;56.44
63663;BME280;49815;51.618;0.336;2022-10-30T04:08:28;100690.89;;;15.06;56.63
63663;BME280;49815;51.618;0.336;2022-10-30T04:10:53;100679.27;;;15.01;56.71
63663;BME280;49815;51.618;0.336;2022-10-30T04:13:19;100674.62;;;15.06;56.47
63663;BME280;49815;51.618;0.336;2022-10-30T04:15:44;100677.80;;;15.07;56.72
63663;BME280;49815;51.618;0.336;2022-10-30T04:18:10;100682.58;;;14.79;56.72
63663;BME280;49815;51.618;0.336;2022-10-30T04:20:34;100685.65;;;14.46;57.34
63663;BME280;49815;51.618;0.336;2022-10-30T04:23:01;100679.54;;;15.01;57.02
63663;BME280;49815;51.618;0.336;2022-10-30T04:25:26;100669.63;;;14.84;56.67
63663;BME280;49815;51.618;0.336;2022-10-30T04:27:50;100670.84;;;14.55;57.03
63663;BME280;49815;51.618;0.336;2022-10-30T04:30:16;100675.42;;;14.69;56.78
63663;BME280;49815;51.618;0.336;2022-10-30T04:32:45;100679.20;;;14.65;57.08
63663;BME280;49815;51.618;0.336;2022-10-30T04:35:06;100682.28;;;14.28;57.75
63663;BME280;49815;51.618;0.336;2022-10-30T04:37:31;100671.77;;;14.63;57.39
63663;BME280;49815;51.618;0.336;2022-10-30T04:39:56;100675.83;;;14.39;57.56
63663;BME280;49815;51.618;0.336;2022-10-30T04:42:22;100675.63;;;14.49;57.22
63663;BME280;49815;51.618;0.336;2022-10-30T04:44:47;100679.53;;;14.78;56.92
63663;BME280;49815;51.618;0.336;2022-10-30T04:47:12;100680.96;;;14.72;56.63
63663;BME280;49815;51.618;0.336;2022-10-30T04:49:38;100681.94;;;14.67;56.86
63663;BME280;49815;51.618;0.336;2022-10-30T04:52:03;100678.85;;;14.96;56.71
63663;BME280;49815;51.618;0.336;2022-10-30T04:54:28;100675.98;;;14.90;56.49
63663;BME280;49815;51.618;0.336;2022-10-30T04:56:54;100676.34;;;14.99;56.37
63663;BME280;49815;51.618;0.336;2022-10-30T04:59:19;100671.02;;;14.78;56.51
63663;BME280;49815;51.618;0.336;2022-10-30T05:01:45;100665.14;;;15.08;56.15
63663;BME280;49815;51.618;0.336;2022-10-30T05:04:10;100673.56;;;14.82;56.58
63663;BME280;49815;51.618;0.336;2022-10-30T05:06:36;100652.70;;;14.77;56.42
63663;BME280;49815;51.618;0.336;2022-10-30T05:09:01;100639.58;;;14.86;56.28
63663;BME280;49815;51.618;0.336;2022-10-30T05:11:26;100636.15;;;15.14;55.73
63663;BME280;49815;51.618;0.336;2022-10-30T05:13:52;100635.54;;;14.98;55.61
63663;BME280;49815;51.618;0.336;2022-10-30T05:16:17;100635.05;;;14.80;55.21
63663;BME280;49815;51.618;0.336;2022-10-30T05:18:43;100641.67;;;15.15;55.01
63663;BME280;49815;51.618;0.336;2022-10-30T05:21:08;100645.44;;;15.29;55.25
63663;BME280;49815;51.618;0.336;2022-10-30T05:23:33;100650.86;;;15.26;55.15
63663;BME280;49815;51.618;0.336;2022-10-30T05:26:00;100656.12;;;14.96;55.51
63663;BME280;49815;51.618;0.336;2022-10-30T05:28:25;100646.75;;;15.05;55.47
63663;BME280;49815;51.618;0.336;2022-10-30T05:30:52;100642.04;;;14.60;56.30
63663;BME280;49815;51.618;0.336;2022-10-30T05:33:16;100637.44;;;14.95;55.81
63663;BME280;49815;51.618;0.336;2022-10-30T05:35:41;100637.43;;;14.64;55.81
63663;BME280;49815;51.618;0.336;2022-10-30T05:38:07;100642.57;;;14.96;55.85
63663;BME280;49815;51.618;0.336;2022-10-30T05:40:32;100633.62;;;15.34;55.91
63663;BME280;49815;51.618;0.336;2022-10-30T05:42:57;100629.32;;;14.81;55.86
63663;BME280;49815;51.618;0.336;2022-10-30T05:45:22;100646.46;;;15.10;55.89
63663;BME280;49815;51.618;0.336;2022-10-30T05:47:53;100663.63;;;14.94;55.68
63663;BME280;49815;51.618;0.336;2022-10-30T05:50:13;100667.07;;;14.80;55.94
63663;BME280;49815;51.618;0.336;2022-10-30T05:52:38;100667.53;;;15.09;55.64
63663;BME280;49815;51.618;0.336;2022-10-30T05:55:05;100671.10;;;14.93;55.65
63663;BME280;49815;51.618;0.336;2022-10-30T05:57:30;100679.64;;;14.86;55.40
63663;BME280;49815;51.618;0.336;2022-10-30T05:59:55;100688.11;;;14.80;55.90
63663;BME280;49815;51.618;0.336;2022-10-30T06:02:20;100689.37;;;15.04;55.66
63663;BME280;49815;51.618;0.336;2022-10-30T06:04:45;100685.26;;;14.83;55.52
63663;BME280;49815;51.618;0.336;2022-10-30T06:07:11;100683.00;;;15.12;55.52
63663;BME280;49815;51.618;0.336;2022-10-30T06:09:37;100686.62;;;15.01;55.63
63663;BME280;49815;51.618;0.336;2022-10-30T06:12:02;100682.74;;;14.96;55.69
63663;BME280;49815;51.618;0.336;2022-10-30T06:14:27;100679.28;;;14.92;55.87
63663;BME280;49815;51.618;0.336;2022-10-30T06:16:52;100675.01;;;14.65;56.47
63663;BME280;49815;51.618;0.336;2022-10-30T06:19:18;100675.70;;;14.62;56.10
63663;BME280;49815;51.618;0.336;2022-10-30T06:21:43;100673.67;;;14.60;56.60
63663;BME280;49815;51.618;0.336;2022-10-30T06:24:08;100672.16;;;14.81;56.23
63663;BME280;49815;51.618;0.336;2022-10-30T06:26:33;100669.54;;;14.65;56.15
63663;BME280;49815;51.618;0.336;2022-10-30T06:28:59;100667.37;;;14.71;55.87
63663;BME280;49815;51.618;0.336;2022-10-30T06:31:24;100667.04;;;15.15;55.66
63663;BME280;49815;51.618;0.336;2022-10-30T06:33:49;100672.88;;;15.21;55.68
63663;BME280;49815;51.618;0.336;2022-10-30T06:36:15;100678.22;;;15.46;55.73
63663;BME280;49815;51.618;0.336;2022-10-30T06:38:40;100681.63;;;15.06;55.70
63663;BME280;49815;51.618;0.336;2022-10-30T06:41:06;100676.72;;;15.26;55.39
63663;BME280;49815;51.618;0.336;2022-10-30T06:43:31;100680.46;;;15.52;55.20
63663;BME280;49815;51.618;0.336;2022-10-30T06:45:57;100675.68;;;15.26;54.77
63663;BME280;49815;51.618;0.336;2022-10-30T06:48:22;100672.59;;;14.98;55.30
63663;BME280;49815;51.618;0.336;2022-10-30T06:50:52;100667.83;;;15.62;54.70
63663;BME280;49815;51.618;0.336;2022-10-30T06:53:12;100675.32;;;15.27;54.67
63663;BME280;49815;51.618;0.336;2022-10-30T06:55:37;100683.77;;;15.20;54.78
63663;BME280;49815;51.618;0.336;2022-10-30T06:58:03;100681.86;;;15.30;54.85
63663;BME280;49815;51.618;0.336;2022-10-30T07:00:29;100682.61;;;15.29;55.39
63663;BME280;49815;51.618;0.336;2022-10-30T07:02:56;100682.93;;;15.05;55.98
63663;BME280;49815;51.618;0.336;2022-10-30T07:05:19;100677.55;;;15.06;55.46
63663;BME280;49815;51.618;0.336;2022-10-30T07:07:45;100674.22;;;15.31;54.99
63663;BME280;49815;51.618;0.336;2022-10-30T07:10:10;100677.05;;;15.42;55.27
63663;BME280;49815;51.618;0.336;2022-10-30T07:12:35;100682.32;;;15.50;55.14
63663;BME280;49815;51.618;0.336;2022-10-30T07:15:01;100681.82;;;15.16;55.76
63663;BME280;49815;51.618;0.336;2022-10-30T07:17:26;100684.35;;;15.36;55.50
63663;BME280;49815;51.618;0.336;2022-10-30T07:19:52;100694.94;;;14.84;55.28
63663;BME280;49815;51.618;0.336;2022-10-30T07:22:17;100701.00;;;15.45;55.46
63663;BME280;49815;51.618;0.336;2022-10-30T07:24:43;100709.38;;;15.57;55.18
63663;BME280;49815;51.618;0.336;2022-10-30T07:27:08;100713.38;;;15.66;54.91
63663;BME280;49815;51.618;0.336;2022-10-30T07:29:34;100723.17;;;15.50;54.97
63663;BME280;49815;51.618;0.336;2022-10-30T07:31:59;100724.55;;;15.57;54.95
63663;BME280;49815;51.618;0.336;2022-10-30T07:34:24;100729.10;;;15.23;55.30
63663;BME280;49815;51.618;0.336;2022-10-30T07:36:49;100732.06;;;15.41;55.00
63663;BME280;49815;51.618;0.336;2022-10-30T07:39:15;100729.04;;;15.62;55.12
63663;BME280;49815;51.618;0.336;2022-10-30T07:41:40;100726.61;;;15.56;54.76
63663;BME280;49815;51.618;0.336;2022-10-30T07:44:05;100717.14;;;15.49;54.95
63663;BME280;49815;51.618;0.336;2022-10-30T07:46:31;100721.76;;;15.55;54.74
63663;BME280;49815;51.618;0.336;2022-10-30T07:48:56;100719.90;;;15.97;54.34
63663;BME280;49815;51.618;0.336;2022-10-30T07:51:22;100717.42;;;15.80;54.19
63663;BME280;49815;51.618;0.336;2022-10-30T07:53:47;100715.64;;;15.96;54.18
63663;BME280;49815;51.618;0.336;2022-10-30T07:56:13;100717.69;;;15.75;54.01
63663;BME280;49815;51.618;0.336;2022-10-30T07:58:38;100721.67;;;16.03;54.23
63663;BME280;49815;51.618;0.336;2022-10-30T08:01:03;100725.64;;;15.91;54.06
63663;BME280;49815;51.618;0.336;2022-10-30T08:03:29;100728.85;;;16.02;54.21
63663;BME280;49815;51.618;0.336;2022-10-30T08:05:54;100731.35;;;15.77;54.28
63663;BME280;49815;51.618;0.336;2022-10-30T08:08:20;100738.70;;;15.70;54.84
63663;BME280;49815;51.618;0.336;2022-10-30T08:10:46;100736.33;;;15.74;55.45
63663;BME280;49815;51.618;0.336;2022-10-30T08:13:11;100736.87;;;15.67;55.48
63663;BME280;49815;51.618;0.336;2022-10-30T08:15:36;100731.30;;;16.28;55.35
63663;BME280;49815;51.618;0.336;2022-10-30T08:18:01;100729.83;;;15.43;55.40
63663;BME280;49815;51.618;0.336;2022-10-30T08:20:26;100724.39;;;15.53;55.22
63663;BME280;49815;51.618;0.336;2022-10-30T08:22:53;100726.33;;;15.53;55.17
63663;BME280;49815;51.618;0.336;2022-10-30T08:25:18;100720.50;;;16.09;55.00
63663;BME280;49815;51.618;0.336;2022-10-30T08:27:49;100714.30;;;15.68;55.04
63663;BME280;49815;51.618;0.336;2022-10-30T08:30:08;100719.35;;;15.82;55.02
63663;BME280;49815;51.618;0.336;2022-10-30T08:32:33;100728.62;;;16.04;54.65
63663;BME280;49815;51.618;0.336;2022-10-30T08:34:59;100730.49;;;15.90;54.76
63663;BME280;49815;51.618;0.336;2022-10-30T08:37:24;100739.64;;;15.84;55.02
63663;BME280;49815;51.618;0.336;2022-10-30T08:39:50;100744.40;;;15.97;54.80
63663;BME280;49815;51.618;0.336;2022-10-30T08:42:15;100744.73;;;15.93;54.94
63663;BME280;49815;51.618;0.336;2022-10-30T08:44:40;100738.53;;;16.10;55.13
63663;BME280;49815;51.618;0.336;2022-10-30T08:47:05;100735.95;;;15.12;56.37
63663;BME280;49815;51.618;0.336;2022-10-30T08:49:31;100726.52;;;15.53;56.22
63663;BME280;49815;51.618;0.336;2022-10-30T08:51:56;100723.47;;;16.32;55.58
63663;BME280;49815;51.618;0.336;2022-10-30T08:54:21;100719.12;;;15.80;55.63
63663;BME280;49815;51.618;0.336;2022-10-30T08:56:47;100729.88;;;15.63;55.67
63663;BME280;49815;51.618;0.336;2022-10-30T08:59:12;100740.50;;;15.85;56.09
63663;BME280;49815;51.618;0.336;2022-10-30T09:01:37;100748.96;;;15.53;56.28
63663;BME280;49815;51.618;0.336;2022-10-30T09:04:03;100759.55;;;14.79;57.22
63663;BME280;49815;51.618;0.336;2022-10-30T09:06:29;100769.90;;;15.03;57.23
63663;BME280;49815;51.618;0.336;2022-10-30T09:08:53;100776.53;;;14.64;58.42
63663;BME280;49815;51.618;0.336;2022-10-30T09:11:19;100772.30;;;15.14;57.62
63663;BME280;49815;51.618;0.336;2022-10-30T09:13:44;100771.00;;;15.36;57.17
63663;BME280;49815;51.618;0.336;2022-10-30T09:16:09;100767.24;;;15.03;57.20
63663;BME280;49815;51.618;0.336;2022-10-30T09:18:34;100755.11;;;15.24;56.95
63663;BME280;49815;51.618;0.336;2022-10-30T09:20:59;100748.90;;;15.31;56.38
63663;BME280;49815;51.618;0.336;2022-10-30T09:23:25;100732.25;;;14.97;56.46
63663;BME280;49815;51.618;0.336;2022-10-30T09:25:50;100727.18;;;15.22;55.95
63663;BME280;49815;51.618;0.336;2022-10-30T09:28:15;100722.53;;;15.28;55.85
63663;BME280;49815;51.618;0.336;2022-10-30T09:30:40;100720.52;;;15.05;56.30
63663;BME280;49815;51.618;0.336;2022-10-30T09:33:06;100723.17;;;14.79;56.97
63663;BME280;49815;51.618;0.336;2022-10-30T09:35:31;100711.65;;;14.89;57.07
63663;BME280;49815;51.618;0.336;2022-10-30T09:37:57;100693.73;;;15.34;56.31
63663;BME280;49815;51.618;0.336;2022-10-30T09:40:29;100692.34;;;14.60;56.77
63663;BME280;49815;51.618;0.336;2022-10-30T09:42:48;100701.25;;;14.88;56.74
63663;BME280;49815;51.618;0.336;2022-10-30T09:45:34;100678.96;;;15.23;55.21
63663;BME280;49815;51.618;0.336;2022-10-30T09:47:44;100675.40;;;15.15;55.54
63663;BME280;49815;51.618;0.336;2022-10-30T09:50:16;100679.49;;;14.56;55.47
63663;BME280;49815;51.618;0.336;2022-10-30T09:52:33;100673.53;;;14.70;55.88
63663;BME280;49815;51.618;0.336;2022-10-30T09:55:06;100675.70;;;15.05;55.23
63663;BME280;49815;51.618;0.336;2022-10-30T09:57:27;100691.58;;;15.31;54.73
63663;BME280;49815;51.618;0.336;2022-10-30T09:59:54;100716.94;;;13.91;56.83
63663;BME280;49815;51.618;0.336;2022-10-30T10:02:23;100713.17;;;14.58;56.22
63663;BME280;49815;51.618;0.336;2022-10-30T10:04:41;100685.32;;;15.25;55.52
63663;BME280;49815;51.618;0.336;2022-10-30T10:07:09;100692.68;;;15.82;54.21
63663;BME280;49815;51.618;0.336;2022-10-30T10:09:29;100690.49;;;15.44;54.53
63663;BME280;49815;51.618;0.336;2022-10-30T10:11:56;100675.98;;;15.27;53.87
63663;BME280;49815;51.618;0.336;2022-10-30T10:14:21;100657.80;;;15.50;53.93
63663;BME280;49815;51.618;0.336;2022-10-30T10:16:46;100659.12;;;15.83;53.59
63663;BME280;49815;51.618;0.336;2022-10-30T10:19:14;100700.26;;;16.18;53.75
63663;BME280;49815;51.618;0.336;2022-10-30T10:21:38;100720.22;;;16.04;53.84
63663;BME280;49815;51.618;0.336;2022-10-30T10:24:02;100742.29;;;15.59;55.02
63663;BME280;49815;51.618;0.336;2022-10-30T10:26:29;100746.51;;;14.65;56.71
63663;BME280;49815;51.618;0.336;2022-10-30T10:28:59;100753.24;;;14.71;57.01
63663;BME280;49815;51.618;0.336;2022-10-30T10:31:27;100744.35;;;14.47;57.75
63663;BME280;49815;51.618;0.336;2022-10-30T10:33:56;100739.00;;;14.40;57.70
63663;BME280;49815;51.618;0.336;2022-10-30T10:36:16;100736.60;;;15.08;56.46
63663;BME280;49815;51.618;0.336;2022-10-30T10:38:48;100749.96;;;14.56;57.45
63663;BME280;49815;51.618;0.336;2022-10-30T10:41:06;100746.80;;;14.58;57.04
63663;BME280;49815;51.618;0.336;2022-10-30T10:43:33;100745.30;;;15.27;55.98
63663;BME280;49815;51.618;0.336;2022-10-30T10:45:55;100743.28;;;15.38;55.77
63663;BME280;49815;51.618;0.336;2022-10-30T10:48:28;100741.81;;;14.96;56.14
63663;BME280;49815;51.618;0.336;2022-10-30T10:50:45;100746.91;;;15.09;55.67
63663;BME280;49815;51.618;0.336;2022-10-30T10:53:09;100758.77;;;14.42;57.02
63663;BME280;49815;51.618;0.336;2022-10-30T10:55:32;100745.75;;;14.19;58.29
63663;BME280;49815;51.618;0.336;2022-10-30T10:57:58;100741.06;;;14.95;56.31
63663;BME280;49815;51.618;0.336;2022-10-30T11:00:21;100726.53;;;14.60;56.58
63663;BME280;49815;51.618;0.336;2022-10-30T11:02:50;100732.97;;;14.61;56.15
63663;BME280;49815;51.618;0.336;2022-10-30T11:05:18;100736.74;;;14.75;56.50
63663;BME280;49815;51.618;0.336;2022-10-30T11:07:43;100742.26;;;14.68;57.28
63663;BME280;49815;51.618;0.336;2022-10-30T11:10:10;100744.71;;;14.68;56.35
63663;BME280;49815;51.618;0.336;2022-10-30T11:12:29;100729.92;;;14.77;55.84
63663;BME280;49815;51.618;0.336;2022-10-30T11:14:52;100726.90;;;15.24;55.40
63663;BME280;49815;51.618;0.336;2022-10-30T11:17:31;100741.37;;;15.34;54.52
63663;BME280;49815;51.618;0.336;2022-10-30T11:19:42;100738.70;;;15.30;55.52
63663;BME280;49815;51.618;0.336;2022-10-30T11:22:18;100734.99;;;15.21;54.87
63663;BME280;49815;51.618;0.336;2022-10-30T11:24:34;100753.37;;;14.83;56.45
63663;BME280;49815;51.618;0.336;2022-10-30T11:29:26;100755.20;;;14.64;56.94
63663;BME280;49815;51.618;0.336;2022-10-30T11:31:58;100742.77;;;14.64;55.86
63663;BME280;49815;51.618;0.336;2022-10-30T11:34:24;100741.74;;;14.25;55.95
63663;BME280;49815;51.618;0.336;2022-10-30T11:36:40;100737.45;;;15.12;55.15
63663;BME280;49815;51.618;0.336;2022-10-30T11:39:09;100740.79;;;14.85;55.40
63663;BME280;49815;51.618;0.336;2022-10-30T11:41:31;100741.45;;;14.35;56.23
63663;BME280;49815;51.618;0.336;2022-10-30T11:43:56;100738.37;;;14.97;55.34
63663;BME280;49815;51.618;0.336;2022-10-30T11:46:22;100732.74;;;15.26;54.56
63663;BME280;49815;51.618;0.336;2022-10-30T11:48:47;100727.43;;;14.88;55.29
63663;BME280;49815;51.618;0.336;2022-10-30T11:51:12;100728.27;;;15.24;54.63
63663;BME280;49815;51.618;0.336;2022-10-30T11:53:40;100737.68;;;15.63;53.72
63663;BME280;49815;51.618;0.336;2022-10-30T11:56:12;100745.37;;;14.90;55.36
63663;BME280;49815;51.618;0.336;2022-10-30T11:58:31;100736.53;;;15.61;53.69
63663;BME280;49815;51.618;0.336;2022-10-30T12:00:59;100729.83;;;15.82;52.61
63663;BME280;49815;51.618;0.336;2022-10-30T12:03:26;100727.94;;;16.06;52.49
63663;BME280;49815;51.618;0.336;2022-10-30T12:05:44;100735.49;;;15.47;53.50
63663;BME280;49815;51.618;0.336;2022-10-30T12:08:17;100737.52;;;15.93;53.44
63663;BME280;49815;51.618;0.336;2022-10-30T12:10:41;100740.82;;;16.46;52.30
63663;BME280;49815;51.618;0.336;2022-10-30T12:13:04;100742.46;;;15.52;53.38
63663;BME280;49815;51.618;0.336;2022-10-30T12:15:26;100739.28;;;16.18;52.33
63663;BME280;49815;51.618;0.336;2022-10-30T12:17:52;100733.07;;;15.71;53.51
63663;BME280;49815;51.618;0.336;2022-10-30T12:20:17;100734.81;;;15.40;53.73
63663;BME280;49815;51.618;0.336;2022-10-30T12:22:42;100728.72;;;15.02;54.60
63663;BME280;49815;51.618;0.336;2022-10-30T12:25:19;100723.52;;;15.20;54.23
63663;BME280;49815;51.618;0.336;2022-10-30T12:27:35;100707.26;;;15.45;53.91
63663;BME280;49815;51.618;0.336;2022-10-30T12:30:03;100714.46;;;15.14;53.81
63663;BME280;49815;51.618;0.336;2022-10-30T12:32:27;100715.85;;;15.15;53.96
63663;BME280;49815;51.618;0.336;2022-10-30T12:34:52;100717.36;;;14.96;54.17
63663;BME280;49815;51.618;0.336;2022-10-30T12:37:17;100732.24;;;15.17;55.14
63663;BME280;49815;51.618;0.336;2022-10-30T12:39:47;100726.29;;;14.69;54.96
63663;BME280;49815;51.618;0.336;2022-10-30T12:42:07;100714.51;;;15.69;53.66